Time;durP1;ratioP1;P1;durP2;ratioP2;P2;SDS_P1;SDS_P2;PMS_P1;PMS_P2;Temp;Humidity;BMP_temperature;BMP_pressure;BME280_temperature;BME280_humidity;BME280_pressure;Samples;Min_cycle;Max_cycle;Signal;HPM_P1;HPM_P2
2022/03/30 00:01:00;;;;;;;;;;;;;;;9.21;100.00;98438.00;5058135;28;20002;-83
2022/03/30 00:03:28;;;;;;;;;;;;;;;8.95;100.00;98437.69;5058011;28;19928;-84
2022/03/30 00:05:55;;;;;;;;;;;;;;;8.97;100.00;98440.84;5041254;28;19928;-83
2022/03/30 00:08:23;;;;;;;;;;;;;;;9.09;100.00;98437.41;5057517;28;19925;-84
2022/03/30 00:10:50;;;;;;;;;;;;;;;8.99;100.00;98434.84;5074234;28;19932;-85
2022/03/30 00:13:17;;;;;;;;;;;;;;;9.06;100.00;98443.03;5041197;28;20344;-85
2022/03/30 00:15:47;;;;;;;;;;;;;;;9.25;100.00;98433.13;5041302;28;19930;-85
2022/03/30 00:18:15;;;;;;;;;;;;;;;9.32;100.00;98430.97;5041185;28;20276;-85
2022/03/30 00:20:42;;;;;;;;;;;;;;;9.36;100.00;98428.13;5024399;28;19928;-85
2022/03/30 00:23:10;;;;;;;;;;;;;;;9.41;100.00;98433.16;5040886;28;20030;-85
2022/03/30 00:25:38;;;;;;;;;;;;;;;9.10;100.00;98438.97;5057121;28;19925;-85
2022/03/30 00:28:05;;;;;;;;;;;;;;;8.99;100.00;98432.06;5073693;28;19924;-85
2022/03/30 00:30:33;;;;;;;;;;;;;;;9.18;100.00;98434.84;5040697;28;19928;-85
2022/03/30 00:33:01;;;;;;;;;;;;;;;9.51;100.00;98429.38;5075124;28;19925;-85
2022/03/30 00:35:28;;;;;;;;;;;;;;;9.64;100.00;98419.13;5007995;28;19929;-85
2022/03/30 00:37:55;;;;;;;;;;;;;;;9.75;100.00;98416.88;5040940;28;19928;-85
2022/03/30 00:40:23;;;;;;;;;;;;;;;9.71;100.00;98410.63;5090166;28;19929;-84
2022/03/30 00:42:50;;;;;;;;;;;;;;;9.62;100.00;98413.22;5057020;28;19931;-85
2022/03/30 00:45:19;;;;;;;;;;;;;;;9.45;100.00;98409.56;5073430;28;19931;-84
2022/03/30 00:47:47;;;;;;;;;;;;;;;9.70;100.00;98406.22;5023499;28;19977;-84
2022/03/30 00:50:18;;;;;;;;;;;;;;;9.72;100.00;98407.38;5040677;28;20015;-84
2022/03/30 00:52:48;;;;;;;;;;;;;;;9.54;100.00;98400.63;5023775;28;19924;-84
2022/03/30 00:55:17;;;;;;;;;;;;;;;9.74;100.00;98398.59;5074525;28;19925;-85
2022/03/30 00:57:46;;;;;;;;;;;;;;;9.71;100.00;98393.88;5056686;28;19932;-84
2022/03/30 01:00:15;;;;;;;;;;;;;;;9.58;100.00;98395.75;5073179;28;19987;-84
2022/03/30 01:02:44;;;;;;;;;;;;;;;9.60;100.00;98387.75;5040208;28;19968;-84
2022/03/30 01:05:13;;;;;;;;;;;;;;;9.81;100.00;98382.47;5073248;28;19929;-84
2022/03/30 01:07:40;;;;;;;;;;;;;;;9.87;100.00;98382.72;5056281;28;19924;-84
2022/03/30 01:10:09;;;;;;;;;;;;;;;9.65;100.00;98379.63;5056423;28;19977;-84
2022/03/30 01:12:38;;;;;;;;;;;;;;;9.72;100.00;98367.53;5074251;28;19924;-84
2022/03/30 01:15:12;;;;;;;;;;;;;;;9.65;100.00;98367.72;5074561;28;19924;-84
2022/03/30 01:17:40;;;;;;;;;;;;;;;9.76;100.00;98373.81;5023622;28;20358;-84
2022/03/30 01:20:08;;;;;;;;;;;;;;;9.87;100.00;98371.56;5056065;28;19971;-84
2022/03/30 01:22:39;;;;;;;;;;;;;;;9.88;100.00;98359.16;5073078;28;19947;-84
2022/03/30 01:25:09;;;;;;;;;;;;;;;9.67;100.00;98354.09;5040280;28;19924;-84
2022/03/30 01:27:36;;;;;;;;;;;;;;;9.90;100.00;98351.94;5089970;28;20375;-84
2022/03/30 01:33:11;;;;;;;;;;;;;;;9.79;100.00;98339.47;5072682;28;19925;-84
2022/03/30 01:35:40;;;;;;;;;;;;;;;9.88;100.00;98339.63;5039646;28;19977;-84
2022/03/30 01:38:09;;;;;;;;;;;;;;;9.83;100.00;98340.19;5056047;28;20371;-84
2022/03/30 01:40:39;;;;;;;;;;;;;;;9.80;100.00;98341.81;5074342;28;19925;-84
2022/03/30 01:43:06;;;;;;;;;;;;;;;9.91;100.00;98347.13;5056008;28;19931;-84
2022/03/30 01:45:34;;;;;;;;;;;;;;;9.93;100.00;98330.75;5056006;28;19925;-84
2022/03/30 01:48:02;;;;;;;;;;;;;;;9.81;100.00;98337.81;5055889;28;19960;-84
2022/03/30 01:50:31;;;;;;;;;;;;;;;9.64;100.00;98332.66;5039430;28;20016;-84
2022/03/30 01:52:59;;;;;;;;;;;;;;;9.63;100.00;98334.69;5072207;28;20387;-84
2022/03/30 01:55:27;;;;;;;;;;;;;;;9.91;100.00;98324.81;5072593;28;20441;-84
2022/03/30 01:57:54;;;;;;;;;;;;;;;10.01;100.00;98326.56;5073869;28;19924;-83
2022/03/30 02:00:24;;;;;;;;;;;;;;;10.01;100.00;98315.41;5059928;28;19928;-85
2022/03/30 02:02:51;;;;;;;;;;;;;;;9.58;100.00;98318.47;5043694;28;19924;-84
2022/03/30 02:05:19;;;;;;;;;;;;;;;9.14;100.00;98319.06;5059470;28;19956;-84
2022/03/30 02:07:46;;;;;;;;;;;;;;;9.31;100.00;98315.13;5059999;28;20374;-85
2022/03/30 02:10:14;;;;;;;;;;;;;;;9.52;100.00;98320.19;5027517;28;19924;-84
2022/03/30 02:12:42;;;;;;;;;;;;;;;9.57;100.00;98328.06;5059917;28;19947;-84
2022/03/30 02:15:10;;;;;;;;;;;;;;;9.64;100.00;98327.88;5043060;28;20433;-84
2022/03/30 02:17:39;;;;;;;;;;;;;;;9.52;100.00;98320.19;5027002;28;19979;-84
2022/03/30 02:20:07;;;;;;;;;;;;;;;9.48;100.00;98319.47;5059973;28;19928;-84
2022/03/30 02:22:35;;;;;;;;;;;;;;;9.58;100.00;98324.03;5076399;28;19925;-85
2022/03/30 02:25:03;;;;;;;;;;;;;;;9.58;100.00;98323.25;5077394;28;19925;-84
2022/03/30 02:27:30;;;;;;;;;;;;;;;9.58;100.00;98317.66;5043419;28;19985;-85
2022/03/30 02:29:58;;;;;;;;;;;;;;;9.60;100.00;98315.22;5043275;28;19924;-84
2022/03/30 02:32:25;;;;;;;;;;;;;;;9.62;100.00;98305.19;5077922;28;19931;-84
2022/03/30 02:34:55;;;;;;;;;;;;;;;9.39;100.00;98305.34;5075814;28;19924;-84
2022/03/30 02:37:23;;;;;;;;;;;;;;;9.31;100.00;98303.16;5076572;28;20329;-84
2022/03/30 02:39:51;;;;;;;;;;;;;;;9.28;100.00;98310.41;5059398;28;19987;-84
2022/03/30 02:42:18;;;;;;;;;;;;;;;9.22;100.00;98300.97;5017709;28;19979;-84
2022/03/30 02:44:45;;;;;;;;;;;;;;;9.15;100.00;98295.56;5035827;28;20020;-84
2022/03/30 02:47:13;;;;;;;;;;;;;;;9.13;100.00;98293.19;5019918;28;19969;-84
2022/03/30 02:49:40;;;;;;;;;;;;;;;9.23;100.00;98290.59;5036769;28;19925;-84
2022/03/30 02:52:07;;;;;;;;;;;;;;;9.34;100.00;98286.38;5036154;28;20348;-85
2022/03/30 02:54:35;;;;;;;;;;;;;;;9.24;100.00;98287.38;5036985;28;19960;-85
2022/03/30 02:57:02;;;;;;;;;;;;;;;9.16;100.00;98280.41;5019657;28;20295;-85
2022/03/30 02:59:32;;;;;;;;;;;;;;;9.26;100.00;98286.94;5035976;28;19925;-85
2022/03/30 03:02:00;;;;;;;;;;;;;;;9.38;100.00;98275.13;5037100;28;20307;-84
2022/03/30 03:04:29;;;;;;;;;;;;;;;9.46;100.00;98279.31;5022096;28;19925;-84
2022/03/30 03:07:00;;;;;;;;;;;;;;;9.48;100.00;98285.25;5046405;28;19925;-84
2022/03/30 03:09:27;;;;;;;;;;;;;;;9.46;100.00;98271.75;5062876;28;19925;-84
2022/03/30 03:11:55;;;;;;;;;;;;;;;9.32;100.00;98266.50;5062880;28;19926;-84
2022/03/30 03:14:27;;;;;;;;;;;;;;;9.37;100.00;98268.78;5059511;28;19948;-84
2022/03/30 03:16:54;;;;;;;;;;;;;;;9.40;100.00;98279.06;5002397;28;20380;-84
2022/03/30 03:19:21;;;;;;;;;;;;;;;9.38;100.00;98267.53;5002941;28;20280;-84
2022/03/30 03:21:48;;;;;;;;;;;;;;;9.05;100.00;98271.50;5051835;28;19964;-84
2022/03/30 03:24:18;;;;;;;;;;;;;;;8.80;100.00;98260.09;5051704;28;20427;-84
2022/03/30 03:26:46;;;;;;;;;;;;;;;8.57;100.00;98266.56;5019194;28;19925;-84
2022/03/30 03:29:13;;;;;;;;;;;;;;;8.73;100.00;98258.28;5035012;28;19929;-84
2022/03/30 03:31:40;;;;;;;;;;;;;;;8.94;100.00;98255.03;5018605;28;19932;-84
2022/03/30 03:34:12;;;;;;;;;;;;;;;8.89;100.00;98244.38;5018869;28;19925;-84
2022/03/30 03:36:39;;;;;;;;;;;;;;;8.98;100.00;98247.38;5036223;28;19925;-85
2022/03/30 03:39:06;;;;;;;;;;;;;;;9.06;100.00;98248.00;5034994;28;19925;-84
2022/03/30 03:41:36;;;;;;;;;;;;;;;9.03;100.00;98244.06;5051846;28;19925;-84
2022/03/30 03:44:03;;;;;;;;;;;;;;;9.08;100.00;98242.78;5034616;28;20004;-84
2022/03/30 03:46:31;;;;;;;;;;;;;;;9.06;100.00;98243.22;5018821;28;19925;-84
2022/03/30 03:48:58;;;;;;;;;;;;;;;8.75;100.00;98233.56;5018482;28;19925;-84
2022/03/30 03:51:26;;;;;;;;;;;;;;;8.36;100.00;98241.94;5002182;28;20364;-84
2022/03/30 03:53:54;;;;;;;;;;;;;;;8.07;100.00;98242.91;5051216;28;19929;-84
2022/03/30 03:56:24;;;;;;;;;;;;;;;8.08;100.00;98250.81;5051539;28;19925;-84
2022/03/30 03:58:52;;;;;;;;;;;;;;;8.43;100.00;98241.81;5034684;28;19925;-85
2022/03/30 04:01:20;;;;;;;;;;;;;;;8.61;100.00;98233.09;5035710;28;19925;-85
2022/03/30 04:03:47;;;;;;;;;;;;;;;8.69;100.00;98231.72;5018204;28;19925;-84
2022/03/30 04:06:15;;;;;;;;;;;;;;;8.80;100.00;98230.25;5034357;28;19925;-84
2022/03/30 04:08:43;;;;;;;;;;;;;;;8.79;100.00;98222.34;5035857;28;20032;-84
2022/03/30 04:11:10;;;;;;;;;;;;;;;8.57;100.00;98222.00;5034577;28;20368;-84
2022/03/30 04:13:37;;;;;;;;;;;;;;;8.68;100.00;98219.78;5018407;28;19925;-85
2022/03/30 04:16:05;;;;;;;;;;;;;;;8.81;100.00;98225.50;5017800;28;19925;-84
2022/03/30 04:18:32;;;;;;;;;;;;;;;8.87;100.00;98218.97;5034245;28;19929;-84
2022/03/30 04:21:00;;;;;;;;;;;;;;;8.90;100.00;98218.13;5001530;28;19932;-85
2022/03/30 04:23:27;;;;;;;;;;;;;;;8.95;100.00;98217.59;5049484;28;19925;-85
2022/03/30 04:25:55;;;;;;;;;;;;;;;8.90;100.00;98226.47;5001330;28;19925;-85
2022/03/30 04:28:22;;;;;;;;;;;;;;;8.89;100.00;98218.56;5050731;28;19932;-85
2022/03/30 04:30:49;;;;;;;;;;;;;;;8.91;100.00;98213.31;5033491;28;20456;-84
2022/03/30 04:33:17;;;;;;;;;;;;;;;8.88;100.00;98220.53;5034430;28;19925;-85
2022/03/30 04:35:44;;;;;;;;;;;;;;;8.84;100.00;98221.84;5034686;28;20265;-85
2022/03/30 04:38:11;;;;;;;;;;;;;;;8.78;100.00;98221.53;5006231;28;19924;-84
2022/03/30 04:40:38;;;;;;;;;;;;;;;8.81;100.00;98223.50;5017713;28;20427;-84
2022/03/30 04:43:06;;;;;;;;;;;;;;;8.85;100.00;98221.41;5033579;28;19925;-84
2022/03/30 04:45:34;;;;;;;;;;;;;;;8.78;100.00;98227.13;5017053;28;19995;-84
2022/03/30 04:48:01;;;;;;;;;;;;;;;8.38;100.00;98224.81;5017330;28;19932;-85
2022/03/30 04:50:29;;;;;;;;;;;;;;;8.31;100.00;98222.97;5017269;28;20511;-84
2022/03/30 04:52:56;;;;;;;;;;;;;;;8.57;100.00;98219.22;5035018;28;19925;-85
2022/03/30 04:55:24;;;;;;;;;;;;;;;8.75;100.00;98216.84;5033587;28;19935;-84
2022/03/30 04:57:51;;;;;;;;;;;;;;;8.85;100.00;98210.25;5033379;28;19948;-84
2022/03/30 05:00:19;;;;;;;;;;;;;;;8.96;100.00;98215.59;5033234;28;19925;-84
2022/03/30 05:02:46;;;;;;;;;;;;;;;8.98;100.00;98219.50;5033205;28;19925;-85
2022/03/30 05:05:13;;;;;;;;;;;;;;;9.23;100.00;98212.56;5034488;28;19929;-84
2022/03/30 05:07:43;;;;;;;;;;;;;;;9.19;100.00;98213.44;5017530;28;20012;-85
2022/03/30 05:10:12;;;;;;;;;;;;;;;9.16;100.00;98211.50;5017119;28;19925;-84
2022/03/30 05:12:40;;;;;;;;;;;;;;;9.23;100.00;98215.34;5016958;28;19925;-84
2022/03/30 05:15:09;;;;;;;;;;;;;;;9.28;100.00;98206.47;5032940;28;19925;-85
2022/03/30 05:17:38;;;;;;;;;;;;;;;9.25;100.00;98210.94;5033034;28;19925;-84
2022/03/30 05:20:06;;;;;;;;;;;;;;;9.30;100.00;98204.03;5006754;28;19948;-85
2022/03/30 05:22:35;;;;;;;;;;;;;;;9.27;100.00;98207.69;5034298;28;19929;-84
2022/03/30 05:25:03;;;;;;;;;;;;;;;9.31;100.00;98206.41;5000515;28;19925;-85
2022/03/30 05:27:30;;;;;;;;;;;;;;;9.34;100.00;98197.16;5033133;28;19961;-85
2022/03/30 05:29:58;;;;;;;;;;;;;;;9.35;100.00;98203.50;5016848;28;19987;-84
2022/03/30 05:32:28;;;;;;;;;;;;;;;9.15;100.00;98195.22;5032581;28;19932;-84
2022/03/30 05:34:56;;;;;;;;;;;;;;;9.20;100.00;98197.50;5032545;28;19929;-85
2022/03/30 05:37:24;;;;;;;;;;;;;;;9.23;100.00;98207.00;5034034;28;20329;-83
2022/03/30 05:39:52;;;;;;;;;;;;;;;9.35;100.00;98203.50;5033029;28;19925;-85
2022/03/30 05:42:21;;;;;;;;;;;;;;;9.37;100.00;98201.06;5054655;28;20311;-83
2022/03/30 05:44:51;;;;;;;;;;;;;;;9.33;100.00;98201.16;5052551;28;20201;-77
2022/03/30 05:47:18;;;;;;;;;;;;;;;9.34;100.00;98201.94;5056167;28;19978;-74
2022/03/30 05:49:45;;;;;;;;;;;;;;;9.37;100.00;98212.22;5073477;28;19931;-75
2022/03/30 05:52:12;;;;;;;;;;;;;;;9.33;100.00;98211.53;5073920;28;19931;-75
2022/03/30 05:54:40;;;;;;;;;;;;;;;9.37;100.00;98198.28;5073736;28;20010;-75
2022/03/30 05:57:07;;;;;;;;;;;;;;;9.32;100.00;98205.16;5073576;28;20345;-75
2022/03/30 05:59:37;;;;;;;;;;;;;;;9.37;100.00;98199.06;5071488;28;19928;-75
2022/03/30 06:02:05;;;;;;;;;;;;;;;9.37;100.00;98203.84;5056116;28;19928;-75
2022/03/30 06:04:32;;;;;;;;;;;;;;;9.38;100.00;98211.00;5072172;28;19931;-75
2022/03/30 06:07:00;;;;;;;;;;;;;;;9.39;100.00;98207.78;5073477;28;20275;-75
2022/03/30 06:09:27;;;;;;;;;;;;;;;9.35;100.00;98209.88;5073572;28;19925;-75
2022/03/30 06:12:05;;;;;;;;;;;;;;;9.37;100.00;98209.44;5073198;28;19924;-75
2022/03/30 06:14:33;;;;;;;;;;;;;;;9.33;100.00;98200.38;5072297;28;19924;-75
2022/03/30 06:17:03;;;;;;;;;;;;;;;9.35;100.00;98204.28;5072335;28;19931;-75
2022/03/30 06:19:31;;;;;;;;;;;;;;;9.40;100.00;98200.19;5073420;28;19931;-75
2022/03/30 06:21:58;;;;;;;;;;;;;;;9.24;100.00;98186.28;5072255;28;20260;-75
2022/03/30 06:24:25;;;;;;;;;;;;;;;9.18;100.00;98188.03;5073390;28;19931;-75
2022/03/30 06:26:53;;;;;;;;;;;;;;;9.31;100.00;98191.66;5073118;28;19924;-75
2022/03/30 06:29:20;;;;;;;;;;;;;;;9.40;100.00;98195.41;5073379;28;19924;-75
2022/03/30 06:31:48;;;;;;;;;;;;;;;9.47;100.00;98200.00;5072111;28;20309;-75
2022/03/30 06:34:15;;;;;;;;;;;;;;;9.52;100.00;98193.91;5073257;28;19936;-75
2022/03/30 06:36:42;;;;;;;;;;;;;;;9.51;100.00;98189.56;5071651;28;19948;-75
2022/03/30 06:39:10;;;;;;;;;;;;;;;9.47;100.00;98188.84;5070129;28;19931;-75
2022/03/30 06:41:39;;;;;;;;;;;;;;;9.48;100.00;98190.44;5072406;28;19951;-75
2022/03/30 06:44:07;;;;;;;;;;;;;;;9.49;100.00;98200.38;5035124;28;20363;-76
2022/03/30 06:46:38;;;;;;;;;;;;;;;9.55;100.00;98195.84;5055282;28;19925;-75
2022/03/30 06:49:07;;;;;;;;;;;;;;;9.62;100.00;98190.84;5056827;28;19924;-76
2022/03/30 06:51:34;;;;;;;;;;;;;;;9.62;100.00;98190.09;5056758;28;19924;-75
2022/03/30 06:54:01;;;;;;;;;;;;;;;9.64;100.00;98187.63;5055420;28;19925;-76
2022/03/30 06:56:28;;;;;;;;;;;;;;;9.61;100.00;98199.66;5055083;28;19935;-75
2022/03/30 06:58:55;;;;;;;;;;;;;;;9.43;100.00;98216.06;5056624;28;19925;-76
2022/03/30 07:01:23;;;;;;;;;;;;;;;8.84;100.00;98219.06;5056644;28;19924;-75
2022/03/30 07:03:50;;;;;;;;;;;;;;;8.71;100.00;98220.91;5056339;28;19970;-76
2022/03/30 07:06:17;;;;;;;;;;;;;;;8.38;100.00;98231.19;5056384;28;19936;-75
2022/03/30 07:11:34;;;;;;;;;;;;;;;7.59;100.00;98221.13;4997632;28;20444;-75
2022/03/30 07:14:01;;;;;;;;;;;;;;;7.37;100.00;98219.94;4997738;28;20016;-75
2022/03/30 07:16:28;;;;;;;;;;;;;;;7.24;100.00;98216.16;5014157;28;20020;-78
2022/03/30 07:18:55;;;;;;;;;;;;;;;6.96;100.00;98216.63;5014227;28;19925;-78
2022/03/30 07:21:22;;;;;;;;;;;;;;;7.21;100.00;98219.78;5014201;28;19965;-75
2022/03/30 07:23:49;;;;;;;;;;;;;;;7.36;100.00;98230.25;5013939;28;19976;-75
2022/03/30 07:26:17;;;;;;;;;;;;;;;7.14;100.00;98228.25;4980810;28;20368;-78
2022/03/30 07:28:47;;;;;;;;;;;;;;;7.08;100.00;98236.28;4998257;28;19932;-76
2022/03/30 07:31:14;;;;;;;;;;;;;;;7.20;100.00;98229.34;5013880;28;19929;-75
2022/03/30 07:33:41;;;;;;;;;;;;;;;6.78;100.00;98241.88;5012255;28;19929;-77
2022/03/30 07:36:08;;;;;;;;;;;;;;;7.02;100.00;98239.94;5013116;28;19926;-77
2022/03/30 07:38:36;;;;;;;;;;;;;;;7.03;100.00;98242.28;5012944;28;20120;-77
2022/03/30 07:41:03;;;;;;;;;;;;;;;7.01;100.00;98249.47;4996404;28;19925;-77
2022/03/30 07:43:30;;;;;;;;;;;;;;;6.77;100.00;98245.84;4945746;28;19925;-77
2022/03/30 07:45:57;;;;;;;;;;;;;;;6.55;100.00;98249.31;5001537;28;20403;-77
2022/03/30 07:48:25;;;;;;;;;;;;;;;6.49;100.00;98237.91;5021835;28;20451;-77
2022/03/30 07:50:52;;;;;;;;;;;;;;;6.37;100.00;98241.22;5034352;28;19932;-77
2022/03/30 07:53:19;;;;;;;;;;;;;;;6.16;100.00;98255.34;5035398;28;19925;-77
2022/03/30 07:56:10;;;;;;;;;;;;;;;6.20;100.00;98253.31;5035169;28;19917;-77
2022/03/30 07:58:37;;;;;;;;;;;;;;;6.15;100.00;98264.84;5083928;28;20019;-77
2022/03/30 08:01:04;;;;;;;;;;;;;;;5.95;100.00;98260.34;5055158;28;19925;-77
2022/03/30 08:03:31;;;;;;;;;;;;;;;5.93;100.00;98262.72;5053422;28;19925;-77
2022/03/30 08:05:58;;;;;;;;;;;;;;;6.31;100.00;98255.97;5052231;28;19979;-77
2022/03/30 08:08:25;;;;;;;;;;;;;;;6.43;100.00;98258.19;5050912;28;20003;-77
2022/03/30 08:10:53;;;;;;;;;;;;;;;6.27;100.00;98266.31;5054795;28;20273;-75
2022/03/30 08:13:20;;;;;;;;;;;;;;;6.08;100.00;98253.06;5052529;28;19931;-77
2022/03/30 08:15:48;;;;;;;;;;;;;;;6.13;100.00;98261.72;5053220;28;19925;-78
2022/03/30 08:18:15;;;;;;;;;;;;;;;5.79;100.00;98258.09;5041841;28;19933;-78
2022/03/30 08:23:28;;;;;;;;;;;;;;;6.06;100.00;98269.34;5034703;28;19925;-77
2022/03/30 08:25:55;;;;;;;;;;;;;;;6.22;100.00;98280.63;5036096;28;19929;-78
2022/03/30 08:28:22;;;;;;;;;;;;;;;6.49;100.00;98296.19;5054079;28;19925;-78
2022/03/30 08:30:50;;;;;;;;;;;;;;;6.55;100.00;98288.16;5054700;28;20024;-78
2022/03/30 08:33:22;;;;;;;;;;;;;;;6.33;100.00;98250.78;5054672;28;19924;-78
2022/03/30 08:35:50;;;;;;;;;;;;;;;5.27;100.00;98231.66;5054677;28;20015;-77
2022/03/30 08:38:17;;;;;;;;;;;;;;;5.52;100.00;98246.88;5047698;28;19925;-76
2022/03/30 08:40:44;;;;;;;;;;;;;;;6.03;100.00;98257.06;5034887;28;19931;-78
2022/03/30 08:43:11;;;;;;;;;;;;;;;6.06;100.00;98247.16;5033160;28;19925;-77
2022/03/30 08:45:41;;;;;;;;;;;;;;;5.80;100.00;98240.25;5033510;28;20410;-78
2022/03/30 08:48:08;;;;;;;;;;;;;;;5.89;100.00;98239.81;5033271;28;19925;-77
2022/03/30 08:50:36;;;;;;;;;;;;;;;5.94;100.00;98247.69;5034585;28;19932;-78
2022/03/30 08:53:04;;;;;;;;;;;;;;;5.69;100.00;98250.66;5034281;28;20390;-76
2022/03/30 08:55:31;;;;;;;;;;;;;;;6.15;100.00;98256.53;5066458;28;20334;-77
2022/03/30 08:58:00;;;;;;;;;;;;;;;5.90;100.00;98252.47;5034411;28;20334;-76
2022/03/30 09:00:26;;;;;;;;;;;;;;;6.57;100.00;98258.03;5034419;28;19925;-77
2022/03/30 09:03:00;;;;;;;;;;;;;;;6.74;100.00;98262.56;5034274;28;19975;-77
2022/03/30 09:05:28;;;;;;;;;;;;;;;6.87;100.00;98260.78;5033970;28;20296;-77
2022/03/30 09:08:14;;;;;;;;;;;;;;;6.82;100.00;98250.94;5033749;28;19935;-77
2022/03/30 09:10:42;;;;;;;;;;;;;;;6.42;100.00;98248.31;5033163;28;19931;-77
2022/03/30 09:13:11;;;;;;;;;;;;;;;6.54;100.00;98253.31;5049132;28;20019;-77
2022/03/30 09:15:38;;;;;;;;;;;;;;;6.45;100.00;98255.81;5034162;28;20011;-77
2022/03/30 09:18:06;;;;;;;;;;;;;;;6.12;100.00;98249.03;5037814;28;19932;-77
2022/03/30 09:20:37;;;;;;;;;;;;;;;5.86;100.00;98238.63;5051310;28;19968;-87
2022/03/30 09:23:08;;;;;;;;;;;;;;;6.07;100.00;98246.75;5051222;28;19925;-83
2022/03/30 09:25:44;;;;;;;;;;;;;;;6.07;100.00;98240.41;5059236;28;19982;-81
2022/03/30 09:28:12;;;;;;;;;;;;;;;6.56;100.00;98242.56;5044799;28;19967;-80
2022/03/30 09:30:39;;;;;;;;;;;;;;;6.67;100.00;98241.22;5061850;28;19924;-81
2022/03/30 09:33:08;;;;;;;;;;;;;;;6.74;100.00;98240.34;5061305;28;19932;-82
2022/03/30 09:35:38;;;;;;;;;;;;;;;7.04;100.00;98231.97;5019772;28;20363;-80
2022/03/30 09:38:08;;;;;;;;;;;;;;;6.80;100.00;98238.69;5053985;28;19931;-82
2022/03/30 09:40:36;;;;;;;;;;;;;;;6.91;100.00;98230.97;5052715;28;20647;-81
2022/03/30 09:43:23;;;;;;;;;;;;;;;7.48;100.00;98234.44;5052684;28;19925;-83
2022/03/30 09:46:06;;;;;;;;;;;;;;;7.39;100.00;98220.31;5036244;28;19925;-82
2022/03/30 09:48:44;;;;;;;;;;;;;;;7.41;100.00;98223.44;5036798;28;20379;-81
2022/03/30 09:51:11;;;;;;;;;;;;;;;7.16;100.00;98225.84;5053758;28;20275;-80
2022/03/30 09:53:38;;;;;;;;;;;;;;;6.84;100.00;98218.00;5052408;28;19925;-76
2022/03/30 09:56:06;;;;;;;;;;;;;;;6.41;100.00;98224.50;5053841;28;19925;-76
2022/03/30 09:58:35;;;;;;;;;;;;;;;6.90;100.00;98226.63;5052371;28;19932;-76
2022/03/30 10:01:10;;;;;;;;;;;;;;;6.98;100.00;98222.53;5053598;28;19967;-76
2022/03/30 10:03:42;;;;;;;;;;;;;;;6.98;100.00;98217.00;5049905;28;19924;-76
2022/03/30 10:06:10;;;;;;;;;;;;;;;7.37;100.00;98222.72;5052310;28;19924;-75
2022/03/30 10:08:39;;;;;;;;;;;;;;;7.53;100.00;98225.59;5035989;28;20011;-75
2022/03/30 10:11:07;;;;;;;;;;;;;;;6.84;100.00;98228.31;5052367;28;19987;-75
2022/03/30 10:13:34;;;;;;;;;;;;;;;7.01;100.00;98216.16;5052440;28;19959;-76
2022/03/30 10:16:08;;;;;;;;;;;;;;;6.70;100.00;98226.50;5070897;28;19932;-75
2022/03/30 10:18:35;;;;;;;;;;;;;;;7.27;100.00;98218.88;5033588;28;19968;-75
2022/03/30 10:21:15;;;;;;;;;;;;;;;7.02;100.00;98217.72;5036834;28;19925;-75
2022/03/30 10:24:00;;;;;;;;;;;;;;;6.93;100.00;98212.69;5036505;28;19931;-75
2022/03/30 10:26:34;;;;;;;;;;;;;;;7.03;100.00;98214.50;5020123;28;19932;-75
2022/03/30 10:29:04;;;;;;;;;;;;;;;6.33;100.00;98218.28;5069625;28;20003;-75
2022/03/30 10:31:31;;;;;;;;;;;;;;;6.39;100.00;98224.16;5037521;28;19925;-75
2022/03/30 10:34:18;;;;;;;;;;;;;;;6.58;100.00;98226.28;5069190;28;19925;-75
2022/03/30 10:37:00;;;;;;;;;;;;;;;7.08;100.00;98219.59;5037303;28;20434;-75
2022/03/30 10:39:27;;;;;;;;;;;;;;;6.90;100.00;98210.75;5042224;28;19932;-75
2022/03/30 10:42:16;;;;;;;;;;;;;;;6.28;100.00;98218.75;5056007;28;19930;-75
2022/03/30 10:44:45;;;;;;;;;;;;;;;6.52;100.00;98217.66;5079155;28;19931;-76
2022/03/30 10:47:12;;;;;;;;;;;;;;;6.91;100.00;98211.53;5097119;28;19924;-77
2022/03/30 10:49:41;;;;;;;;;;;;;;;7.08;100.00;98211.28;5078420;28;20840;-76
2022/03/30 10:52:24;;;;;;;;;;;;;;;7.14;100.00;98208.78;5096580;28;20422;-75
2022/03/30 10:55:11;;;;;;;;;;;;;;;6.35;100.00;98213.09;5059204;28;19928;-76
2022/03/30 10:57:57;;;;;;;;;;;;;;;6.01;100.00;98209.56;5075527;28;20418;-76
2022/03/30 11:00:25;;;;;;;;;;;;;;;5.70;100.00;98209.88;5040284;28;19924;-76
2022/03/30 11:03:05;;;;;;;;;;;;;;;6.34;100.00;98206.00;5057848;28;19952;-76
2022/03/30 11:05:32;;;;;;;;;;;;;;;6.75;100.00;98206.63;5091623;28;19931;-76
2022/03/30 11:08:00;;;;;;;;;;;;;;;6.44;100.00;98198.72;5075900;28;19928;-76
2022/03/30 11:10:28;;;;;;;;;;;;;;;6.47;100.00;98204.22;5075851;28;20015;-76
2022/03/30 11:12:56;;;;;;;;;;;;;;;6.59;100.00;98200.88;5075721;28;19935;-76
2022/03/30 11:15:23;;;;;;;;;;;;;;;6.61;100.00;98201.25;5075606;28;20441;-76
2022/03/30 11:17:50;;;;;;;;;;;;;;;6.11;100.00;98191.22;5075344;28;19928;-76
2022/03/30 11:20:19;;;;;;;;;;;;;;;6.37;100.00;98198.81;5091316;28;19951;-76
2022/03/30 11:22:47;;;;;;;;;;;;;;;6.44;100.00;98204.25;5075578;28;19925;-76
2022/03/30 11:25:23;;;;;;;;;;;;;;;6.87;100.00;98197.72;5075705;28;19925;-76
2022/03/30 11:27:59;;;;;;;;;;;;;;;6.48;100.00;98202.25;5075777;28;19932;-76
2022/03/30 11:30:31;;;;;;;;;;;;;;;6.66;100.00;98186.13;5057557;28;20015;-76
2022/03/30 11:33:00;;;;;;;;;;;;;;;6.67;100.00;98185.72;5056681;28;19933;-77
2022/03/30 11:35:28;;;;;;;;;;;;;;;6.86;100.00;98187.03;5075398;28;19924;-76
2022/03/30 11:38:01;;;;;;;;;;;;;;;6.85;100.00;98191.00;5074085;28;19925;-76
2022/03/30 11:40:28;;;;;;;;;;;;;;;6.42;100.00;98192.81;5075334;28;19928;-76
2022/03/30 11:42:57;;;;;;;;;;;;;;;6.16;100.00;98199.88;5087262;28;19925;-77
2022/03/30 11:45:32;;;;;;;;;;;;;;;6.27;100.00;98199.75;5054009;28;19935;-77
2022/03/30 11:48:06;;;;;;;;;;;;;;;7.01;100.00;98199.50;5055143;28;20350;-76
2022/03/30 11:50:37;;;;;;;;;;;;;;;6.81;100.00;98193.03;5055078;28;19924;-76
2022/03/30 11:53:09;;;;;;;;;;;;;;;6.78;100.00;98191.09;5055155;28;19932;-76
2022/03/30 11:55:47;;;;;;;;;;;;;;;6.70;100.00;98195.97;5060367;28;20027;-76
2022/03/30 11:58:22;;;;;;;;;;;;;;;6.68;100.00;98192.06;5071126;28;19931;-76
2022/03/30 12:00:49;;;;;;;;;;;;;;;6.77;100.00;98189.53;5071347;28;20329;-76
2022/03/30 12:03:17;;;;;;;;;;;;;;;6.96;100.00;98186.06;5074004;28;20345;-76
2022/03/30 12:05:44;;;;;;;;;;;;;;;6.64;100.00;98186.53;5074374;28;20315;-76
2022/03/30 12:08:12;;;;;;;;;;;;;;;6.69;100.00;98176.97;5075318;28;19947;-76
2022/03/30 12:10:39;;;;;;;;;;;;;;;6.73;100.00;98180.47;5074368;28;19970;-76
2022/03/30 12:13:06;;;;;;;;;;;;;;;6.58;100.00;98181.88;5075323;28;20371;-76
2022/03/30 12:15:35;;;;;;;;;;;;;;;6.71;100.00;98186.44;5075064;28;19925;-76
2022/03/30 12:18:02;;;;;;;;;;;;;;;6.74;100.00;98184.81;5075240;28;20346;-76
2022/03/30 12:20:31;;;;;;;;;;;;;;;6.80;100.00;98189.47;5075284;28;19924;-76
2022/03/30 12:23:02;;;;;;;;;;;;;;;6.39;100.00;98196.41;5073813;28;19925;-76
2022/03/30 12:25:39;;;;;;;;;;;;;;;6.43;100.00;98197.16;5075175;28;20061;-76
2022/03/30 12:28:07;;;;;;;;;;;;;;;6.19;100.00;98192.72;5073817;28;20337;-76
2022/03/30 12:30:37;;;;;;;;;;;;;;;6.16;100.00;98188.00;5070647;28;20007;-76
2022/03/30 12:33:05;;;;;;;;;;;;;;;6.04;100.00;98197.66;5070273;28;20325;-76
2022/03/30 12:35:35;;;;;;;;;;;;;;;6.09;100.00;98193.63;5073527;28;19925;-76
2022/03/30 12:38:10;;;;;;;;;;;;;;;6.59;100.00;98195.34;5075070;28;19924;-76
2022/03/30 12:40:42;;;;;;;;;;;;;;;6.68;100.00;98197.59;5073595;28;20341;-77
2022/03/30 12:43:09;;;;;;;;;;;;;;;6.44;100.00;98187.59;5062494;28;19925;-77
2022/03/30 12:45:53;;;;;;;;;;;;;;;6.39;100.00;98190.88;5053494;28;19925;-76
2022/03/30 12:48:25;;;;;;;;;;;;;;;6.66;100.00;98181.38;5054832;28;19925;-76
2022/03/30 12:50:52;;;;;;;;;;;;;;;6.52;100.00;98183.53;5054555;28;20380;-76
2022/03/30 12:53:20;;;;;;;;;;;;;;;6.33;100.00;98175.88;5052849;28;20372;-76
2022/03/30 12:55:48;;;;;;;;;;;;;;;6.56;100.00;98184.28;5048632;28;19929;-77
2022/03/30 12:58:19;;;;;;;;;;;;;;;6.13;100.00;98172.97;5047241;28;19968;-77
2022/03/30 13:00:47;;;;;;;;;;;;;;;6.23;100.00;98179.56;5052306;28;19978;-77
2022/03/30 13:03:22;;;;;;;;;;;;;;;6.49;100.00;98176.06;5054439;28;19925;-77
2022/03/30 13:06:01;;;;;;;;;;;;;;;6.67;100.00;98171.03;5052894;28;20437;-77